sensor_id;sensor_type;location;lat;lon;timestamp;P1;durP1;ratioP1;P2;durP2;ratioP2
23418;SDS011;11882;42.522;27.458;2024-02-26T00:01:53;6.83;;;5.30;;
23418;SDS011;11882;42.522;27.458;2024-02-26T00:04:20;8.50;;;5.43;;
23418;SDS011;11882;42.522;27.458;2024-02-26T00:06:47;7.53;;;5.57;;
23418;SDS011;11882;42.522;27.458;2024-02-26T00:09:16;8.67;;;5.60;;
23418;SDS011;11882;42.522;27.458;2024-02-26T00:11:43;9.83;;;6.03;;
23418;SDS011;11882;42.522;27.458;2024-02-26T00:14:11;8.00;;;4.97;;
23418;SDS011;11882;42.522;27.458;2024-02-26T00:16:39;5.67;;;4.73;;
23418;SDS011;11882;42.522;27.458;2024-02-26T00:19:08;6.57;;;5.40;;
23418;SDS011;11882;42.522;27.458;2024-02-26T00:21:39;8.07;;;5.10;;
23418;SDS011;11882;42.522;27.458;2024-02-26T00:24:07;7.03;;;6.00;;
23418;SDS011;11882;42.522;27.458;2024-02-26T00:26:34;10.53;;;5.33;;
23418;SDS011;11882;42.522;27.458;2024-02-26T00:29:01;7.43;;;5.47;;
23418;SDS011;11882;42.522;27.458;2024-02-26T00:31:28;6.77;;;5.23;;
23418;SDS011;11882;42.522;27.458;2024-02-26T00:33:56;5.50;;;4.93;;
23418;SDS011;11882;42.522;27.458;2024-02-26T00:36:24;5.73;;;4.97;;
23418;SDS011;11882;42.522;27.458;2024-02-26T00:38:52;7.53;;;5.77;;
23418;SDS011;11882;42.522;27.458;2024-02-26T00:41:19;7.97;;;6.00;;
23418;SDS011;11882;42.522;27.458;2024-02-26T00:43:47;6.00;;;5.00;;
23418;SDS011;11882;42.522;27.458;2024-02-26T00:46:14;6.60;;;5.33;;
23418;SDS011;11882;42.522;27.458;2024-02-26T00:48:41;9.00;;;5.93;;
23418;SDS011;11882;42.522;27.458;2024-02-26T00:51:09;5.40;;;4.90;;
23418;SDS011;11882;42.522;27.458;2024-02-26T00:53:37;6.50;;;5.50;;
23418;SDS011;11882;42.522;27.458;2024-02-26T00:56:05;8.00;;;6.10;;
23418;SDS011;11882;42.522;27.458;2024-02-26T00:58:32;8.00;;;6.10;;
23418;SDS011;11882;42.522;27.458;2024-02-26T01:00:59;7.27;;;6.00;;
23418;SDS011;11882;42.522;27.458;2024-02-26T01:03:28;11.73;;;6.33;;
23418;SDS011;11882;42.522;27.458;2024-02-26T01:05:55;8.13;;;5.97;;
23418;SDS011;11882;42.522;27.458;2024-02-26T01:08:25;8.20;;;5.80;;
23418;SDS011;11882;42.522;27.458;2024-02-26T01:10:56;7.40;;;6.30;;
23418;SDS011;11882;42.522;27.458;2024-02-26T01:13:23;8.93;;;6.90;;
23418;SDS011;11882;42.522;27.458;2024-02-26T01:15:50;14.80;;;6.37;;
23418;SDS011;11882;42.522;27.458;2024-02-26T01:18:17;9.90;;;7.07;;
23418;SDS011;11882;42.522;27.458;2024-02-26T01:20:45;10.87;;;7.37;;
23418;SDS011;11882;42.522;27.458;2024-02-26T01:23:12;11.50;;;7.53;;
23418;SDS011;11882;42.522;27.458;2024-02-26T01:25:40;9.23;;;6.20;;
23418;SDS011;11882;42.522;27.458;2024-02-26T01:28:09;8.80;;;6.53;;
23418;SDS011;11882;42.522;27.458;2024-02-26T01:30:37;7.70;;;5.87;;
23418;SDS011;11882;42.522;27.458;2024-02-26T01:33:03;9.37;;;7.23;;
23418;SDS011;11882;42.522;27.458;2024-02-26T01:35:31;10.20;;;6.07;;
23418;SDS011;11882;42.522;27.458;2024-02-26T01:37:58;8.73;;;6.80;;
23418;SDS011;11882;42.522;27.458;2024-02-26T01:40:26;9.83;;;6.00;;
23418;SDS011;11882;42.522;27.458;2024-02-26T01:42:53;6.80;;;6.10;;
23418;SDS011;11882;42.522;27.458;2024-02-26T01:45:22;9.27;;;5.63;;
23418;SDS011;11882;42.522;27.458;2024-02-26T01:47:50;11.80;;;7.40;;
23418;SDS011;11882;42.522;27.458;2024-02-26T01:50:18;9.40;;;7.27;;
23418;SDS011;11882;42.522;27.458;2024-02-26T01:52:47;8.00;;;6.20;;
23418;SDS011;11882;42.522;27.458;2024-02-26T01:55:17;8.17;;;5.97;;
23418;SDS011;11882;42.522;27.458;2024-02-26T01:57:49;8.30;;;6.27;;
23418;SDS011;11882;42.522;27.458;2024-02-26T02:00:18;8.60;;;6.43;;
23418;SDS011;11882;42.522;27.458;2024-02-26T02:02:48;8.57;;;6.23;;
23418;SDS011;11882;42.522;27.458;2024-02-26T02:05:16;7.87;;;6.27;;
23418;SDS011;11882;42.522;27.458;2024-02-26T02:07:43;14.37;;;6.50;;
23418;SDS011;11882;42.522;27.458;2024-02-26T02:10:11;8.23;;;6.73;;
23418;SDS011;11882;42.522;27.458;2024-02-26T02:12:39;6.03;;;5.20;;
23418;SDS011;11882;42.522;27.458;2024-02-26T02:15:07;12.13;;;6.90;;
23418;SDS011;11882;42.522;27.458;2024-02-26T02:17:35;10.10;;;6.83;;
23418;SDS011;11882;42.522;27.458;2024-02-26T02:20:05;7.87;;;6.47;;
23418;SDS011;11882;42.522;27.458;2024-02-26T02:22:36;8.53;;;6.97;;
23418;SDS011;11882;42.522;27.458;2024-02-26T02:25:04;11.77;;;8.20;;
23418;SDS011;11882;42.522;27.458;2024-02-26T02:27:32;11.83;;;6.97;;
23418;SDS011;11882;42.522;27.458;2024-02-26T02:29:59;11.53;;;7.77;;
23418;SDS011;11882;42.522;27.458;2024-02-26T02:32:27;9.47;;;6.97;;
23418;SDS011;11882;42.522;27.458;2024-02-26T02:34:57;10.73;;;7.13;;
23418;SDS011;11882;42.522;27.458;2024-02-26T02:37:25;7.97;;;6.43;;
23418;SDS011;11882;42.522;27.458;2024-02-26T02:39:54;9.53;;;7.50;;
23418;SDS011;11882;42.522;27.458;2024-02-26T02:42:23;9.80;;;6.77;;
23418;SDS011;11882;42.522;27.458;2024-02-26T02:44:50;8.27;;;6.40;;
23418;SDS011;11882;42.522;27.458;2024-02-26T02:47:18;11.13;;;6.33;;
23418;SDS011;11882;42.522;27.458;2024-02-26T02:49:45;8.23;;;6.90;;
23418;SDS011;11882;42.522;27.458;2024-02-26T02:52:12;9.97;;;6.60;;
23418;SDS011;11882;42.522;27.458;2024-02-26T02:54:39;8.80;;;6.43;;
23418;SDS011;11882;42.522;27.458;2024-02-26T02:57:09;10.17;;;7.23;;
23418;SDS011;11882;42.522;27.458;2024-02-26T02:59:36;8.57;;;6.93;;
23418;SDS011;11882;42.522;27.458;2024-02-26T03:02:04;8.67;;;6.97;;
23418;SDS011;11882;42.522;27.458;2024-02-26T03:04:32;8.83;;;6.90;;
23418;SDS011;11882;42.522;27.458;2024-02-26T03:06:59;9.23;;;7.33;;
23418;SDS011;11882;42.522;27.458;2024-02-26T03:09:26;9.63;;;6.33;;
23418;SDS011;11882;42.522;27.458;2024-02-26T03:11:53;11.77;;;7.00;;
23418;SDS011;11882;42.522;27.458;2024-02-26T03:14:22;11.77;;;7.57;;
23418;SDS011;11882;42.522;27.458;2024-02-26T03:16:52;8.83;;;7.03;;
23418;SDS011;11882;42.522;27.458;2024-02-26T03:19:20;9.50;;;6.60;;
23418;SDS011;11882;42.522;27.458;2024-02-26T03:21:47;9.47;;;6.67;;
23418;SDS011;11882;42.522;27.458;2024-02-26T03:24:15;8.30;;;6.33;;
23418;SDS011;11882;42.522;27.458;2024-02-26T03:26:42;6.77;;;5.77;;
23418;SDS011;11882;42.522;27.458;2024-02-26T03:29:09;8.33;;;6.43;;
23418;SDS011;11882;42.522;27.458;2024-02-26T03:31:38;7.57;;;5.97;;
23418;SDS011;11882;42.522;27.458;2024-02-26T03:34:08;8.07;;;6.60;;
23418;SDS011;11882;42.522;27.458;2024-02-26T03:36:37;7.97;;;6.67;;
23418;SDS011;11882;42.522;27.458;2024-02-26T03:39:04;6.63;;;5.07;;
23418;SDS011;11882;42.522;27.458;2024-02-26T03:41:32;10.83;;;5.93;;
23418;SDS011;11882;42.522;27.458;2024-02-26T03:44:00;10.13;;;6.73;;
23418;SDS011;11882;42.522;27.458;2024-02-26T03:46:27;8.43;;;6.27;;
23418;SDS011;11882;42.522;27.458;2024-02-26T03:48:56;9.03;;;6.27;;
23418;SDS011;11882;42.522;27.458;2024-02-26T03:51:24;11.43;;;6.80;;
23418;SDS011;11882;42.522;27.458;2024-02-26T03:53:51;5.97;;;5.37;;
23418;SDS011;11882;42.522;27.458;2024-02-26T03:56:19;15.23;;;7.13;;
23418;SDS011;11882;42.522;27.458;2024-02-26T03:58:46;7.93;;;5.60;;
23418;SDS011;11882;42.522;27.458;2024-02-26T04:01:13;7.97;;;6.40;;
23418;SDS011;11882;42.522;27.458;2024-02-26T04:03:40;9.73;;;6.90;;
23418;SDS011;11882;42.522;27.458;2024-02-26T04:06:10;6.70;;;6.03;;
23418;SDS011;11882;42.522;27.458;2024-02-26T04:08:40;8.20;;;5.87;;
23418;SDS011;11882;42.522;27.458;2024-02-26T04:11:08;11.83;;;6.10;;
23418;SDS011;11882;42.522;27.458;2024-02-26T04:13:35;9.40;;;6.43;;
23418;SDS011;11882;42.522;27.458;2024-02-26T04:16:04;7.77;;;6.47;;
23418;SDS011;11882;42.522;27.458;2024-02-26T04:18:31;11.33;;;6.63;;
23418;SDS011;11882;42.522;27.458;2024-02-26T04:20:58;8.57;;;5.90;;
23418;SDS011;11882;42.522;27.458;2024-02-26T04:23:27;10.73;;;6.07;;
23418;SDS011;11882;42.522;27.458;2024-02-26T04:25:55;6.97;;;5.37;;
23418;SDS011;11882;42.522;27.458;2024-02-26T04:28:22;10.07;;;6.73;;
23418;SDS011;11882;42.522;27.458;2024-02-26T04:30:50;8.10;;;6.30;;
23418;SDS011;11882;42.522;27.458;2024-02-26T04:33:18;9.63;;;6.33;;
23418;SDS011;11882;42.522;27.458;2024-02-26T04:35:45;8.63;;;7.27;;
23418;SDS011;11882;42.522;27.458;2024-02-26T04:38:12;8.73;;;6.40;;
23418;SDS011;11882;42.522;27.458;2024-02-26T04:40:41;7.67;;;5.47;;
23418;SDS011;11882;42.522;27.458;2024-02-26T04:43:08;13.07;;;8.17;;
23418;SDS011;11882;42.522;27.458;2024-02-26T04:45:35;7.33;;;5.63;;
23418;SDS011;11882;42.522;27.458;2024-02-26T04:48:02;6.43;;;5.77;;
23418;SDS011;11882;42.522;27.458;2024-02-26T04:50:29;12.00;;;6.10;;
23418;SDS011;11882;42.522;27.458;2024-02-26T04:52:57;9.90;;;6.27;;
23418;SDS011;11882;42.522;27.458;2024-02-26T04:55:24;9.70;;;5.33;;
23418;SDS011;11882;42.522;27.458;2024-02-26T04:57:53;6.70;;;5.23;;
23418;SDS011;11882;42.522;27.458;2024-02-26T05:00:20;6.83;;;5.47;;
23418;SDS011;11882;42.522;27.458;2024-02-26T05:02:47;7.90;;;4.90;;
23418;SDS011;11882;42.522;27.458;2024-02-26T05:05:14;6.97;;;4.97;;
23418;SDS011;11882;42.522;27.458;2024-02-26T05:07:41;8.27;;;4.73;;
23418;SDS011;11882;42.522;27.458;2024-02-26T05:10:09;8.03;;;5.97;;
23418;SDS011;11882;42.522;27.458;2024-02-26T05:12:36;8.73;;;4.97;;
23418;SDS011;11882;42.522;27.458;2024-02-26T05:15:06;6.23;;;4.57;;
23418;SDS011;11882;42.522;27.458;2024-02-26T05:17:34;5.33;;;4.67;;
23418;SDS011;11882;42.522;27.458;2024-02-26T05:20:01;7.07;;;5.07;;
23418;SDS011;11882;42.522;27.458;2024-02-26T05:22:33;9.63;;;5.60;;
23418;SDS011;11882;42.522;27.458;2024-02-26T05:25:00;9.63;;;3.50;;
23418;SDS011;11882;42.522;27.458;2024-02-26T05:27:28;8.03;;;5.07;;
23418;SDS011;11882;42.522;27.458;2024-02-26T05:29:55;7.13;;;4.57;;
23418;SDS011;11882;42.522;27.458;2024-02-26T05:32:27;4.60;;;3.27;;
23418;SDS011;11882;42.522;27.458;2024-02-26T05:34:54;5.03;;;3.90;;
23418;SDS011;11882;42.522;27.458;2024-02-26T05:37:21;5.80;;;4.07;;
23418;SDS011;11882;42.522;27.458;2024-02-26T05:39:49;4.57;;;3.97;;
23418;SDS011;11882;42.522;27.458;2024-02-26T05:42:16;7.23;;;4.60;;
23418;SDS011;11882;42.522;27.458;2024-02-26T05:44:43;8.03;;;4.63;;
23418;SDS011;11882;42.522;27.458;2024-02-26T05:47:10;6.17;;;4.10;;
23418;SDS011;11882;42.522;27.458;2024-02-26T05:49:40;4.97;;;3.90;;
23418;SDS011;11882;42.522;27.458;2024-02-26T05:52:07;8.07;;;4.50;;
23418;SDS011;11882;42.522;27.458;2024-02-26T05:54:34;6.80;;;4.80;;
23418;SDS011;11882;42.522;27.458;2024-02-26T05:57:01;6.20;;;4.23;;
23418;SDS011;11882;42.522;27.458;2024-02-26T05:59:29;5.63;;;3.97;;
23418;SDS011;11882;42.522;27.458;2024-02-26T06:01:56;5.87;;;4.37;;
23418;SDS011;11882;42.522;27.458;2024-02-26T06:04:23;5.30;;;3.73;;
23418;SDS011;11882;42.522;27.458;2024-02-26T06:06:52;4.93;;;4.17;;
23418;SDS011;11882;42.522;27.458;2024-02-26T06:09:19;8.47;;;4.03;;
23418;SDS011;11882;42.522;27.458;2024-02-26T06:11:46;8.53;;;4.77;;
23418;SDS011;11882;42.522;27.458;2024-02-26T06:14:14;7.20;;;4.00;;
23418;SDS011;11882;42.522;27.458;2024-02-26T06:16:43;3.73;;;3.23;;
23418;SDS011;11882;42.522;27.458;2024-02-26T06:19:10;6.33;;;3.80;;
23418;SDS011;11882;42.522;27.458;2024-02-26T06:21:37;6.40;;;3.67;;
23418;SDS011;11882;42.522;27.458;2024-02-26T06:24:06;5.40;;;3.87;;
23418;SDS011;11882;42.522;27.458;2024-02-26T06:26:33;5.57;;;3.90;;
23418;SDS011;11882;42.522;27.458;2024-02-26T06:29:00;7.90;;;3.63;;
23418;SDS011;11882;42.522;27.458;2024-02-26T06:31:28;6.47;;;3.70;;
23418;SDS011;11882;42.522;27.458;2024-02-26T06:33:55;6.77;;;3.47;;
23418;SDS011;11882;42.522;27.458;2024-02-26T06:36:22;4.33;;;3.20;;
23418;SDS011;11882;42.522;27.458;2024-02-26T06:38:51;4.93;;;3.63;;
23418;SDS011;11882;42.522;27.458;2024-02-26T06:41:22;16.00;;;3.70;;
23418;SDS011;11882;42.522;27.458;2024-02-26T06:43:52;5.27;;;3.80;;
23418;SDS011;11882;42.522;27.458;2024-02-26T06:46:19;5.37;;;3.00;;
23418;SDS011;11882;42.522;27.458;2024-02-26T06:48:47;7.57;;;3.33;;
23418;SDS011;11882;42.522;27.458;2024-02-26T06:51:14;8.23;;;3.97;;
23418;SDS011;11882;42.522;27.458;2024-02-26T06:53:42;5.97;;;3.30;;
23418;SDS011;11882;42.522;27.458;2024-02-26T06:56:09;4.20;;;3.37;;
23418;SDS011;11882;42.522;27.458;2024-02-26T06:58:38;7.00;;;4.57;;
23418;SDS011;11882;42.522;27.458;2024-02-26T07:01:05;6.10;;;4.60;;
23418;SDS011;11882;42.522;27.458;2024-02-26T07:03:33;6.97;;;3.80;;
23418;SDS011;11882;42.522;27.458;2024-02-26T07:06:00;9.23;;;4.53;;
23418;SDS011;11882;42.522;27.458;2024-02-26T07:08:27;5.20;;;3.83;;
23418;SDS011;11882;42.522;27.458;2024-02-26T07:10:55;10.30;;;4.40;;
23418;SDS011;11882;42.522;27.458;2024-02-26T07:13:22;4.90;;;3.53;;
23418;SDS011;11882;42.522;27.458;2024-02-26T07:15:51;4.77;;;3.67;;
23418;SDS011;11882;42.522;27.458;2024-02-26T07:18:18;7.40;;;3.67;;
23418;SDS011;11882;42.522;27.458;2024-02-26T07:20:45;4.10;;;3.33;;
23418;SDS011;11882;42.522;27.458;2024-02-26T07:23:12;5.50;;;4.07;;
23418;SDS011;11882;42.522;27.458;2024-02-26T07:25:39;6.93;;;4.03;;
23418;SDS011;11882;42.522;27.458;2024-02-26T07:28:07;10.43;;;3.90;;
23418;SDS011;11882;42.522;27.458;2024-02-26T07:30:34;5.50;;;3.23;;
23418;SDS011;11882;42.522;27.458;2024-02-26T07:33:03;3.83;;;3.03;;
23418;SDS011;11882;42.522;27.458;2024-02-26T07:35:31;4.57;;;3.20;;
23418;SDS011;11882;42.522;27.458;2024-02-26T07:37:58;7.20;;;3.27;;
23418;SDS011;11882;42.522;27.458;2024-02-26T07:40:25;3.77;;;2.80;;
23418;SDS011;11882;42.522;27.458;2024-02-26T07:42:53;4.87;;;3.17;;
23418;SDS011;11882;42.522;27.458;2024-02-26T07:45:21;10.17;;;3.10;;
23418;SDS011;11882;42.522;27.458;2024-02-26T07:47:48;5.67;;;3.77;;
23418;SDS011;11882;42.522;27.458;2024-02-26T07:50:18;4.50;;;2.93;;
23418;SDS011;11882;42.522;27.458;2024-02-26T07:52:46;9.87;;;3.07;;
23418;SDS011;11882;42.522;27.458;2024-02-26T07:55:13;7.20;;;3.00;;
23418;SDS011;11882;42.522;27.458;2024-02-26T07:57:42;5.07;;;3.13;;
23418;SDS011;11882;42.522;27.458;2024-02-26T08:00:10;5.33;;;3.33;;
23418;SDS011;11882;42.522;27.458;2024-02-26T08:02:41;2.37;;;2.13;;
23418;SDS011;11882;42.522;27.458;2024-02-26T08:05:09;8.87;;;2.80;;
23418;SDS011;11882;42.522;27.458;2024-02-26T08:07:38;3.80;;;2.77;;
23418;SDS011;11882;42.522;27.458;2024-02-26T08:10:05;4.07;;;2.70;;
23418;SDS011;11882;42.522;27.458;2024-02-26T08:12:33;2.67;;;2.17;;
23418;SDS011;11882;42.522;27.458;2024-02-26T08:15:00;5.70;;;3.13;;
23418;SDS011;11882;42.522;27.458;2024-02-26T08:17:27;4.27;;;2.80;;
23418;SDS011;11882;42.522;27.458;2024-02-26T08:19:55;7.53;;;3.37;;
23418;SDS011;11882;42.522;27.458;2024-02-26T08:22:22;3.53;;;2.67;;
23418;SDS011;11882;42.522;27.458;2024-02-26T08:24:51;5.00;;;3.13;;
23418;SDS011;11882;42.522;27.458;2024-02-26T08:27:21;5.47;;;3.23;;
23418;SDS011;11882;42.522;27.458;2024-02-26T08:29:48;5.03;;;2.90;;
23418;SDS011;11882;42.522;27.458;2024-02-26T08:32:15;7.60;;;3.17;;
23418;SDS011;11882;42.522;27.458;2024-02-26T08:34:42;8.53;;;3.07;;
23418;SDS011;11882;42.522;27.458;2024-02-26T08:37:09;5.13;;;2.77;;
23418;SDS011;11882;42.522;27.458;2024-02-26T08:39:37;6.90;;;3.07;;
23418;SDS011;11882;42.522;27.458;2024-02-26T08:42:12;3.10;;;2.80;;
23418;SDS011;11882;42.522;27.458;2024-02-26T08:44:39;12.77;;;3.73;;
23418;SDS011;11882;42.522;27.458;2024-02-26T08:47:07;3.63;;;2.50;;
23418;SDS011;11882;42.522;27.458;2024-02-26T08:49:34;4.53;;;2.70;;
23418;SDS011;11882;42.522;27.458;2024-02-26T08:52:01;8.57;;;2.80;;
23418;SDS011;11882;42.522;27.458;2024-02-26T08:54:28;4.07;;;2.67;;
23418;SDS011;11882;42.522;27.458;2024-02-26T08:56:56;4.47;;;3.20;;
23418;SDS011;11882;42.522;27.458;2024-02-26T08:59:25;6.70;;;3.67;;
23418;SDS011;11882;42.522;27.458;2024-02-26T09:01:52;3.93;;;2.87;;
23418;SDS011;11882;42.522;27.458;2024-02-26T09:04:19;7.23;;;3.03;;
23418;SDS011;11882;42.522;27.458;2024-02-26T09:06:47;4.17;;;2.30;;
23418;SDS011;11882;42.522;27.458;2024-02-26T09:09:14;4.63;;;3.20;;
23418;SDS011;11882;42.522;27.458;2024-02-26T09:11:41;4.27;;;2.70;;
23418;SDS011;11882;42.522;27.458;2024-02-26T09:14:08;7.97;;;3.40;;
23418;SDS011;11882;42.522;27.458;2024-02-26T09:16:37;6.47;;;2.87;;
23418;SDS011;11882;42.522;27.458;2024-02-26T09:19:04;7.23;;;2.73;;
23418;SDS011;11882;42.522;27.458;2024-02-26T09:21:31;5.33;;;3.17;;
23418;SDS011;11882;42.522;27.458;2024-02-26T09:23:58;4.17;;;2.73;;
23418;SDS011;11882;42.522;27.458;2024-02-26T09:26:26;9.13;;;3.40;;
23418;SDS011;11882;42.522;27.458;2024-02-26T09:28:53;6.00;;;2.97;;
23418;SDS011;11882;42.522;27.458;2024-02-26T09:31:20;7.87;;;3.20;;
23418;SDS011;11882;42.522;27.458;2024-02-26T09:33:49;3.63;;;2.93;;
23418;SDS011;11882;42.522;27.458;2024-02-26T09:36:16;8.43;;;3.30;;
23418;SDS011;11882;42.522;27.458;2024-02-26T09:38:43;5.47;;;3.00;;
23418;SDS011;11882;42.522;27.458;2024-02-26T09:41:11;7.23;;;3.43;;
23418;SDS011;11882;42.522;27.458;2024-02-26T09:43:43;4.67;;;2.77;;
23418;SDS011;11882;42.522;27.458;2024-02-26T09:46:11;5.60;;;3.33;;
23418;SDS011;11882;42.522;27.458;2024-02-26T09:48:39;8.23;;;4.70;;
23418;SDS011;11882;42.522;27.458;2024-02-26T09:51:11;8.03;;;4.37;;
23418;SDS011;11882;42.522;27.458;2024-02-26T09:53:39;8.90;;;4.40;;
23418;SDS011;11882;42.522;27.458;2024-02-26T09:56:11;6.87;;;3.93;;
23418;SDS011;11882;42.522;27.458;2024-02-26T09:58:39;6.93;;;3.53;;
23418;SDS011;11882;42.522;27.458;2024-02-26T10:01:10;3.13;;;2.63;;
23418;SDS011;11882;42.522;27.458;2024-02-26T10:03:40;6.43;;;3.03;;
23418;SDS011;11882;42.522;27.458;2024-02-26T10:06:11;4.43;;;2.73;;
23418;SDS011;11882;42.522;27.458;2024-02-26T10:08:38;4.67;;;3.10;;
23418;SDS011;11882;42.522;27.458;2024-02-26T10:11:07;7.63;;;3.33;;
23418;SDS011;11882;42.522;27.458;2024-02-26T10:13:36;5.23;;;3.10;;
23418;SDS011;11882;42.522;27.458;2024-02-26T10:16:04;3.67;;;2.90;;
23418;SDS011;11882;42.522;27.458;2024-02-26T10:21:17;3.03;;;2.50;;
23418;SDS011;11882;42.522;27.458;2024-02-26T10:23:45;6.20;;;3.60;;
23418;SDS011;11882;42.522;27.458;2024-02-26T10:26:12;5.47;;;2.83;;
23418;SDS011;11882;42.522;27.458;2024-02-26T10:28:41;4.43;;;2.47;;
23418;SDS011;11882;42.522;27.458;2024-02-26T10:31:09;4.97;;;2.63;;
23418;SDS011;11882;42.522;27.458;2024-02-26T10:33:37;2.27;;;1.93;;
23418;SDS011;11882;42.522;27.458;2024-02-26T10:36:05;2.87;;;2.07;;
23418;SDS011;11882;42.522;27.458;2024-02-26T10:38:35;3.80;;;2.63;;
23418;SDS011;11882;42.522;27.458;2024-02-26T10:41:03;5.37;;;2.53;;
23418;SDS011;11882;42.522;27.458;2024-02-26T10:43:31;5.80;;;3.27;;
23418;SDS011;11882;42.522;27.458;2024-02-26T10:45:58;3.27;;;2.20;;
23418;SDS011;11882;42.522;27.458;2024-02-26T10:48:25;3.27;;;2.10;;
23418;SDS011;11882;42.522;27.458;2024-02-26T10:50:53;5.43;;;2.43;;
23418;SDS011;11882;42.522;27.458;2024-02-26T10:53:21;3.50;;;2.27;;
23418;SDS011;11882;42.522;27.458;2024-02-26T10:55:53;3.97;;;2.43;;
23418;SDS011;11882;42.522;27.458;2024-02-26T10:58:24;4.17;;;2.50;;
23418;SDS011;11882;42.522;27.458;2024-02-26T11:00:52;6.70;;;3.00;;
23418;SDS011;11882;42.522;27.458;2024-02-26T11:03:20;3.90;;;2.40;;
23418;SDS011;11882;42.522;27.458;2024-02-26T11:05:48;2.63;;;2.03;;
23418;SDS011;11882;42.522;27.458;2024-02-26T11:08:16;3.53;;;2.30;;
23418;SDS011;11882;42.522;27.458;2024-02-26T11:10:46;3.80;;;2.47;;
23418;SDS011;11882;42.522;27.458;2024-02-26T11:13:17;3.70;;;2.30;;
23418;SDS011;11882;42.522;27.458;2024-02-26T11:15:46;4.40;;;2.83;;
23418;SDS011;11882;42.522;27.458;2024-02-26T11:18:14;4.67;;;2.37;;
23418;SDS011;11882;42.522;27.458;2024-02-26T11:20:42;3.30;;;2.40;;
23418;SDS011;11882;42.522;27.458;2024-02-26T11:23:11;3.93;;;2.53;;
23418;SDS011;11882;42.522;27.458;2024-02-26T11:25:38;7.57;;;3.20;;
23418;SDS011;11882;42.522;27.458;2024-02-26T11:28:08;5.80;;;2.27;;
23418;SDS011;11882;42.522;27.458;2024-02-26T11:30:41;4.33;;;2.33;;
23418;SDS011;11882;42.522;27.458;2024-02-26T11:33:11;6.10;;;2.17;;
23418;SDS011;11882;42.522;27.458;2024-02-26T11:35:40;3.33;;;2.07;;
23418;SDS011;11882;42.522;27.458;2024-02-26T11:38:08;3.63;;;2.03;;
23418;SDS011;11882;42.522;27.458;2024-02-26T11:40:44;4.40;;;2.37;;
23418;SDS011;11882;42.522;27.458;2024-02-26T11:43:11;3.73;;;2.20;;
23418;SDS011;11882;42.522;27.458;2024-02-26T11:45:50;5.73;;;2.20;;
23418;SDS011;11882;42.522;27.458;2024-02-26T11:48:21;4.50;;;2.10;;
23418;SDS011;11882;42.522;27.458;2024-02-26T11:50:50;4.30;;;2.30;;
23418;SDS011;11882;42.522;27.458;2024-02-26T11:53:21;10.03;;;2.50;;
23418;SDS011;11882;42.522;27.458;2024-02-26T11:55:49;5.37;;;2.33;;
23418;SDS011;11882;42.522;27.458;2024-02-26T11:58:39;5.40;;;2.57;;
23418;SDS011;11882;42.522;27.458;2024-02-26T12:04:06;4.57;;;2.13;;
23418;SDS011;11882;42.522;27.458;2024-02-26T12:06:41;3.20;;;2.10;;
23418;SDS011;11882;42.522;27.458;2024-02-26T12:09:09;3.50;;;1.90;;
23418;SDS011;11882;42.522;27.458;2024-02-26T12:11:38;3.13;;;2.17;;
23418;SDS011;11882;42.522;27.458;2024-02-26T12:14:05;3.63;;;1.93;;
23418;SDS011;11882;42.522;27.458;2024-02-26T12:16:35;5.07;;;2.50;;
23418;SDS011;11882;42.522;27.458;2024-02-26T12:19:08;3.57;;;2.17;;
23418;SDS011;11882;42.522;27.458;2024-02-26T12:21:36;3.70;;;2.23;;
23418;SDS011;11882;42.522;27.458;2024-02-26T12:24:09;3.10;;;2.17;;
23418;SDS011;11882;42.522;27.458;2024-02-26T12:26:38;5.60;;;2.33;;
23418;SDS011;11882;42.522;27.458;2024-02-26T12:29:05;4.23;;;2.37;;
23418;SDS011;11882;42.522;27.458;2024-02-26T12:31:32;4.20;;;2.63;;
23418;SDS011;11882;42.522;27.458;2024-02-26T12:34:02;2.40;;;1.67;;
23418;SDS011;11882;42.522;27.458;2024-02-26T12:36:31;5.23;;;2.60;;
23418;SDS011;11882;42.522;27.458;2024-02-26T12:38:59;3.33;;;2.33;;
23418;SDS011;11882;42.522;27.458;2024-02-26T12:41:27;3.87;;;2.50;;
23418;SDS011;11882;42.522;27.458;2024-02-26T12:43:55;4.47;;;2.13;;
23418;SDS011;11882;42.522;27.458;2024-02-26T12:46:23;10.43;;;2.50;;
23418;SDS011;11882;42.522;27.458;2024-02-26T12:48:51;4.53;;;2.20;;
23418;SDS011;11882;42.522;27.458;2024-02-26T12:51:19;4.70;;;2.00;;
23418;SDS011;11882;42.522;27.458;2024-02-26T12:53:48;10.80;;;2.60;;
23418;SDS011;11882;42.522;27.458;2024-02-26T12:56:17;4.13;;;2.07;;
23418;SDS011;11882;42.522;27.458;2024-02-26T12:58:45;8.07;;;3.03;;
23418;SDS011;11882;42.522;27.458;2024-02-26T13:01:13;4.63;;;2.17;;
23418;SDS011;11882;42.522;27.458;2024-02-26T13:03:43;7.97;;;2.13;;
23418;SDS011;11882;42.522;27.458;2024-02-26T13:06:11;4.17;;;2.40;;
23418;SDS011;11882;42.522;27.458;2024-02-26T13:08:39;2.87;;;2.13;;
23418;SDS011;11882;42.522;27.458;2024-02-26T13:11:08;4.20;;;2.17;;
23418;SDS011;11882;42.522;27.458;2024-02-26T13:13:36;3.03;;;2.33;;
23418;SDS011;11882;42.522;27.458;2024-02-26T13:16:03;3.87;;;1.87;;
23418;SDS011;11882;42.522;27.458;2024-02-26T13:18:33;4.63;;;2.77;;
23418;SDS011;11882;42.522;27.458;2024-02-26T13:21:08;4.27;;;1.90;;
23418;SDS011;11882;42.522;27.458;2024-02-26T13:23:37;3.23;;;2.50;;
23418;SDS011;11882;42.522;27.458;2024-02-26T13:26:04;3.17;;;2.07;;
23418;SDS011;11882;42.522;27.458;2024-02-26T13:28:33;9.23;;;2.37;;
23418;SDS011;11882;42.522;27.458;2024-02-26T13:31:01;2.87;;;1.67;;
23418;SDS011;11882;42.522;27.458;2024-02-26T13:33:30;7.90;;;1.77;;
23418;SDS011;11882;42.522;27.458;2024-02-26T13:35:57;6.67;;;2.20;;
23418;SDS011;11882;42.522;27.458;2024-02-26T13:38:25;7.17;;;2.57;;
23418;SDS011;11882;42.522;27.458;2024-02-26T13:40:53;4.37;;;2.27;;
23418;SDS011;11882;42.522;27.458;2024-02-26T13:43:21;5.03;;;2.23;;
23418;SDS011;11882;42.522;27.458;2024-02-26T13:45:50;8.43;;;3.00;;
23418;SDS011;11882;42.522;27.458;2024-02-26T13:48:17;1.80;;;1.60;;
23418;SDS011;11882;42.522;27.458;2024-02-26T13:50:44;4.13;;;1.90;;
23418;SDS011;11882;42.522;27.458;2024-02-26T13:53:11;2.97;;;2.10;;
23418;SDS011;11882;42.522;27.458;2024-02-26T13:55:39;6.90;;;2.90;;
23418;SDS011;11882;42.522;27.458;2024-02-26T13:58:08;2.67;;;2.10;;
23418;SDS011;11882;42.522;27.458;2024-02-26T14:00:39;2.83;;;2.07;;
23418;SDS011;11882;42.522;27.458;2024-02-26T14:03:08;2.57;;;2.00;;
23418;SDS011;11882;42.522;27.458;2024-02-26T14:05:35;2.47;;;2.07;;
23418;SDS011;11882;42.522;27.458;2024-02-26T14:08:03;4.00;;;2.97;;
23418;SDS011;11882;42.522;27.458;2024-02-26T14:10:31;8.23;;;2.73;;
23418;SDS011;11882;42.522;27.458;2024-02-26T14:12:58;2.00;;;1.60;;
23418;SDS011;11882;42.522;27.458;2024-02-26T14:15:25;4.27;;;2.27;;
23418;SDS011;11882;42.522;27.458;2024-02-26T14:17:53;4.77;;;2.20;;
23418;SDS011;11882;42.522;27.458;2024-02-26T14:20:23;5.73;;;3.00;;
23418;SDS011;11882;42.522;27.458;2024-02-26T14:22:51;2.90;;;1.87;;
23418;SDS011;11882;42.522;27.458;2024-02-26T14:25:18;3.37;;;2.53;;
23418;SDS011;11882;42.522;27.458;2024-02-26T14:27:46;3.53;;;2.37;;
23418;SDS011;11882;42.522;27.458;2024-02-26T14:30:13;7.30;;;2.07;;
23418;SDS011;11882;42.522;27.458;2024-02-26T14:32:41;4.43;;;2.57;;
23418;SDS011;11882;42.522;27.458;2024-02-26T14:35:09;4.47;;;2.33;;
23418;SDS011;11882;42.522;27.458;2024-02-26T14:37:38;3.00;;;2.20;;
23418;SDS011;11882;42.522;27.458;2024-02-26T14:40:06;2.57;;;2.03;;
23418;SDS011;11882;42.522;27.458;2024-02-26T14:42:33;6.10;;;2.80;;
23418;SDS011;11882;42.522;27.458;2024-02-26T14:45:01;3.27;;;1.87;;